createdAt,value
2023-03-02T00:02:02.198Z,72.51
2023-03-02T00:04:38.733Z,73.04
2023-03-02T00:07:09.926Z,72.95
2023-03-02T00:09:37.610Z,71.69
2023-03-02T00:12:05.952Z,73.08
2023-03-02T00:14:32.792Z,73.19
2023-03-02T00:16:59.679Z,72.31
2023-03-02T00:19:26.544Z,72.10
2023-03-02T00:21:53.357Z,72.42
2023-03-02T00:24:20.355Z,72.03
2023-03-02T00:26:47.243Z,72.01
2023-03-02T00:29:14.241Z,72.30
2023-03-02T00:31:41.260Z,72.90
2023-03-02T00:34:08.093Z,72.87
2023-03-02T00:36:34.981Z,72.87
2023-03-02T00:39:01.879Z,73.39
2023-03-02T00:41:28.986Z,73.25
2023-03-02T00:43:56.538Z,73.71
2023-03-02T00:46:24.958Z,73.21
2023-03-02T00:48:52.641Z,72.71
2023-03-02T00:51:20.192Z,74.09
2023-03-02T00:53:47.109Z,73.78
2023-03-02T00:56:14.045Z,74.40
2023-03-02T00:58:40.857Z,74.43
2023-03-02T01:01:13.553Z,74.75
2023-03-02T01:03:40.542Z,74.79
2023-03-02T01:06:16.530Z,75.04
2023-03-02T01:08:43.668Z,74.36
2023-03-02T01:11:19.946Z,74.78
2023-03-02T01:13:48.103Z,74.66
2023-03-02T01:16:15.073Z,75.02
2023-03-02T01:18:41.944Z,74.91
2023-03-02T01:21:13.041Z,74.63
2023-03-02T01:23:39.891Z,75.13
2023-03-02T01:26:07.193Z,75.18
2023-03-02T01:28:34.049Z,76.03
2023-03-02T01:31:04.617Z,75.76
2023-03-02T01:33:32.298Z,75.75
2023-03-02T01:35:59.275Z,75.28
2023-03-02T01:38:26.586Z,75.31
2023-03-02T01:40:53.453Z,75.97
2023-03-02T01:43:20.251Z,76.10
2023-03-02T01:45:57.810Z,76.32
2023-03-02T01:48:47.280Z,76.57
2023-03-02T01:51:21.664Z,76.22
2023-03-02T01:53:55.548Z,76.70
2023-03-02T01:56:31.594Z,76.65
2023-03-02T01:59:05.411Z,79.37
2023-03-02T02:01:36.867Z,80.50
2023-03-02T02:04:04.265Z,81.45
2023-03-02T02:06:47.603Z,80.68
2023-03-02T02:09:18.060Z,80.34
2023-03-02T02:11:46.155Z,81.54
2023-03-02T02:14:13.416Z,80.84
2023-03-02T02:16:41.547Z,80.60
2023-03-02T02:19:41.480Z,80.62
2023-03-02T02:22:11.112Z,80.17
2023-03-02T02:24:50.164Z,80.42
2023-03-02T02:27:17.036Z,80.29
2023-03-02T02:29:48.651Z,80.99
2023-03-02T02:32:32.664Z,80.24
2023-03-02T02:35:20.180Z,80.90
2023-03-02T02:38:01.380Z,79.63
2023-03-02T02:40:54.024Z,80.43
2023-03-02T02:43:23.666Z,79.79
2023-03-02T02:45:55.622Z,79.72
2023-03-02T02:48:26.867Z,79.69
2023-03-02T02:51:00.317Z,79.39
2023-03-02T02:53:48.722Z,79.10
2023-03-02T02:56:17.357Z,79.05
2023-03-02T02:58:49.803Z,79.72
2023-03-02T03:01:19.511Z,80.06
2023-03-02T03:04:01.626Z,79.71
2023-03-02T03:06:52.980Z,79.84
2023-03-02T03:09:20.385Z,79.65
2023-03-02T03:11:52.463Z,80.63
2023-03-02T03:14:25.597Z,81.98
2023-03-02T03:16:52.738Z,81.93
2023-03-02T03:19:27.975Z,81.00
2023-03-02T03:22:00.585Z,80.97
2023-03-02T03:24:30.207Z,79.94
2023-03-02T03:26:58.049Z,80.37
2023-03-02T03:29:27.835Z,80.33
2023-03-02T03:31:57.060Z,80.46
2023-03-02T03:34:25.022Z,81.40
2023-03-02T03:36:52.061Z,81.71
2023-03-02T03:39:19.763Z,80.89
2023-03-02T03:41:46.732Z,81.79
2023-03-02T03:44:13.564Z,81.55
2023-03-02T03:46:40.448Z,81.57
2023-03-02T03:49:07.264Z,82.05
2023-03-02T03:51:35.409Z,81.38
2023-03-02T03:54:08.961Z,81.57
2023-03-02T03:56:40.885Z,82.04
2023-03-02T03:59:13.664Z,82.16
2023-03-02T04:01:47.763Z,81.52
2023-03-02T04:04:20.337Z,82.09
2023-03-02T04:06:47.248Z,80.66
2023-03-02T04:09:15.469Z,80.43
2023-03-02T04:11:45.054Z,80.13
2023-03-02T04:14:12.900Z,81.12
2023-03-02T04:16:40.159Z,79.70
2023-03-02T04:19:10.779Z,79.79
2023-03-02T04:21:45.091Z,79.73
2023-03-02T04:24:13.146Z,80.08
2023-03-02T04:26:42.492Z,79.68
2023-03-02T04:29:10.732Z,79.71
2023-03-02T04:31:37.940Z,79.80
2023-03-02T04:34:06.253Z,79.84
2023-03-02T04:36:36.212Z,80.16
2023-03-02T04:39:05.398Z,81.42
2023-03-02T04:41:32.451Z,80.69
2023-03-02T04:43:59.338Z,81.44
2023-03-02T04:46:28.228Z,81.38
2023-03-02T04:48:55.783Z,82.38
2023-03-02T04:51:28.764Z,81.50
2023-03-02T04:54:00.546Z,81.60
2023-03-02T04:56:28.118Z,81.53
2023-03-02T04:58:55.923Z,81.39
2023-03-02T05:01:23.344Z,81.65
2023-03-02T05:03:50.370Z,81.80
2023-03-02T05:06:17.577Z,80.99
2023-03-02T05:08:45.221Z,81.00
2023-03-02T05:11:22.029Z,81.55
2023-03-02T05:13:55.344Z,81.19
2023-03-02T05:16:24.014Z,81.04
2023-03-02T05:18:50.914Z,81.03
2023-03-02T05:21:19.360Z,81.73
2023-03-02T05:23:46.318Z,82.66
2023-03-02T05:26:14.240Z,82.07
2023-03-02T05:28:41.671Z,83.66
2023-03-02T05:31:09.179Z,83.44
2023-03-02T05:33:36.257Z,83.72
2023-03-02T05:36:03.300Z,83.83
2023-03-02T05:38:31.622Z,82.87
2023-03-02T05:40:58.648Z,84.34
2023-03-02T05:43:25.493Z,84.04
2023-03-02T05:45:52.290Z,84.42
2023-03-02T05:48:19.208Z,82.64
2023-03-02T05:50:46.127Z,82.54
2023-03-02T05:53:12.956Z,83.56
2023-03-02T05:55:39.805Z,82.41
2023-03-02T05:58:09.087Z,83.97
2023-03-02T06:00:36.182Z,82.96
2023-03-02T06:03:03.160Z,82.32
2023-03-02T06:05:30.050Z,82.93
2023-03-02T06:07:56.863Z,82.55
2023-03-02T06:10:24.515Z,83.03
2023-03-02T06:12:51.734Z,83.39
2023-03-02T06:15:19.213Z,83.22
2023-03-02T06:17:46.431Z,83.01
2023-03-02T06:20:14.389Z,82.72
2023-03-02T06:22:45.320Z,83.08
2023-03-02T06:25:21.978Z,82.91
2023-03-02T06:27:51.622Z,84.11
2023-03-02T06:30:22.757Z,83.62
2023-03-02T06:32:49.658Z,82.34
2023-03-02T06:35:16.844Z,83.27
2023-03-02T06:37:44.439Z,83.27
2023-03-02T06:40:13.733Z,82.42
2023-03-02T06:42:42.689Z,83.13
2023-03-02T06:45:11.423Z,82.19
2023-03-02T06:47:38.629Z,81.91
2023-03-02T06:50:06.492Z,82.31
2023-03-02T06:52:35.024Z,82.23
2023-03-02T06:55:02.789Z,82.91
2023-03-02T06:57:33.728Z,82.56
2023-03-02T07:00:06.763Z,81.89
2023-03-02T07:02:33.715Z,80.73
2023-03-02T07:05:00.546Z,81.73
2023-03-02T07:07:27.516Z,80.51
2023-03-02T07:09:54.374Z,81.01
2023-03-02T07:12:21.212Z,81.81
2023-03-02T07:14:48.113Z,80.57
2023-03-02T07:17:15.002Z,80.57
2023-03-02T07:19:41.854Z,81.20
2023-03-02T07:22:08.758Z,80.48
2023-03-02T07:24:35.680Z,81.42
2023-03-02T07:27:02.577Z,80.93
2023-03-02T07:29:29.457Z,81.65
2023-03-02T07:31:59.294Z,81.52
2023-03-02T07:34:27.319Z,81.61
2023-03-02T07:36:54.387Z,81.10
2023-03-02T07:39:21.479Z,80.85
2023-03-02T07:41:48.320Z,80.55
2023-03-02T07:44:15.570Z,81.58
2023-03-02T07:46:42.486Z,82.73
2023-03-02T07:49:09.384Z,82.22
2023-03-02T07:51:36.192Z,81.51
2023-03-02T07:54:04.910Z,82.04
2023-03-02T07:56:31.870Z,81.95
2023-03-02T07:58:58.836Z,82.40
2023-03-02T08:01:25.992Z,81.64
2023-03-02T08:03:53.280Z,81.04
2023-03-02T08:06:20.735Z,80.93
2023-03-02T08:08:47.977Z,81.28
2023-03-02T08:11:17.729Z,81.21
2023-03-02T08:13:45.663Z,81.30
2023-03-02T08:16:15.321Z,81.85
2023-03-02T08:18:43.310Z,82.19
2023-03-02T08:21:20.761Z,82.96
2023-03-02T08:23:48.317Z,82.56
2023-03-02T08:26:19.918Z,82.64
2023-03-02T08:28:47.470Z,82.18
2023-03-02T08:31:14.965Z,82.78
2023-03-02T08:33:41.838Z,81.94
2023-03-02T08:36:15.722Z,83.07
2023-03-02T08:38:42.963Z,82.78
2023-03-02T08:41:17.481Z,82.61
2023-03-02T08:43:44.308Z,81.53
2023-03-02T08:46:14.251Z,81.43
2023-03-02T08:48:41.212Z,81.44
2023-03-02T08:51:17.134Z,82.97
2023-03-02T08:53:47.221Z,83.15
2023-03-02T08:56:33.938Z,82.92
2023-03-02T08:59:05.366Z,82.82
2023-03-02T09:01:36.155Z,82.50
2023-03-02T09:04:06.267Z,82.49
2023-03-02T09:06:36.416Z,81.87
2023-03-02T09:09:03.762Z,83.12
2023-03-02T09:11:30.940Z,82.80
2023-03-02T09:13:57.869Z,82.69
2023-03-02T09:16:25.820Z,82.72
2023-03-02T09:18:54.411Z,83.91
2023-03-02T09:21:22.271Z,83.44
2023-03-02T09:23:49.154Z,83.25
2023-03-02T09:26:15.972Z,82.35
2023-03-02T09:28:42.768Z,82.69
2023-03-02T09:31:09.700Z,81.89
2023-03-02T09:33:36.864Z,82.62
2023-03-02T09:36:09.544Z,82.01
2023-03-02T09:38:36.459Z,81.39
2023-03-02T09:41:21.310Z,81.78
2023-03-02T09:44:00.253Z,82.80
2023-03-02T09:46:41.032Z,82.37
2023-03-02T09:49:29.657Z,82.75
2023-03-02T09:52:18.004Z,82.10
2023-03-02T09:54:45.034Z,82.68
2023-03-02T09:57:34.864Z,82.55
2023-03-02T10:00:24.733Z,82.81
2023-03-02T10:03:17.112Z,82.46
2023-03-02T10:05:49.697Z,83.02
2023-03-02T10:08:21.460Z,82.47
2023-03-02T10:11:46.373Z,81.25
2023-03-02T10:14:24.502Z,81.00
2023-03-02T10:16:58.406Z,81.95
2023-03-02T10:19:32.370Z,82.44
2023-03-02T10:22:26.909Z,81.43
2023-03-02T10:25:35.252Z,81.17
2023-03-02T10:28:19.997Z,81.29
2023-03-02T10:30:56.742Z,80.37
2023-03-02T10:33:24.311Z,80.50
2023-03-02T10:35:53.372Z,79.74
2023-03-02T10:38:23.852Z,80.07
2023-03-02T10:40:59.796Z,80.03
2023-03-02T10:43:37.074Z,79.81
2023-03-02T10:46:10.319Z,79.45
2023-03-02T10:49:01.077Z,79.61
2023-03-02T10:51:35.266Z,79.58
2023-03-02T10:54:13.926Z,80.28
2023-03-02T10:56:52.045Z,79.78
2023-03-02T10:59:45.401Z,80.16
2023-03-02T11:02:23.951Z,78.83
2023-03-02T11:05:21.624Z,78.94
2023-03-02T11:07:56.820Z,78.85
2023-03-02T11:10:34.296Z,79.09
2023-03-02T11:13:03.134Z,79.42
2023-03-02T11:15:37.220Z,78.98
2023-03-02T11:18:37.648Z,79.29
2023-03-02T11:21:35.756Z,78.46
2023-03-02T11:24:11.360Z,78.18
2023-03-02T11:26:52.803Z,78.10
2023-03-02T11:29:38.830Z,77.64
2023-03-02T11:32:08.452Z,76.82
2023-03-02T11:35:05.564Z,78.14
2023-03-02T11:37:54.765Z,76.63
2023-03-02T11:40:52.314Z,75.88
2023-03-02T11:43:19.304Z,75.15
2023-03-02T11:46:06.679Z,75.31
2023-03-02T11:48:48.914Z,76.23
2023-03-02T11:51:24.309Z,76.22
2023-03-02T11:54:33.942Z,75.35
2023-03-02T11:57:01.672Z,75.38
2023-03-02T11:59:29.197Z,73.50
2023-03-02T12:01:57.477Z,74.14
2023-03-02T12:04:32.341Z,74.71
2023-03-02T12:07:01.976Z,73.93
2023-03-02T12:09:37.361Z,72.69
2023-03-02T12:12:22.314Z,73.51
2023-03-02T12:14:49.266Z,74.17
2023-03-02T12:17:32.541Z,74.13
2023-03-02T12:20:23.340Z,74.00
2023-03-02T12:22:50.750Z,75.29
2023-03-02T12:25:20.484Z,75.81
2023-03-02T12:27:51.219Z,74.16
2023-03-02T12:30:24.647Z,73.78
2023-03-02T12:33:22.487Z,73.86
2023-03-02T12:35:51.888Z,74.95
2023-03-02T12:38:33.952Z,74.93
2023-03-02T12:41:38.933Z,74.20
2023-03-02T12:44:56.335Z,70.18
2023-03-02T12:47:29.759Z,71.93
2023-03-02T12:50:06.097Z,72.36
2023-03-02T12:52:36.579Z,71.44
2023-03-02T12:55:19.144Z,72.44
2023-03-02T12:57:52.081Z,70.29
2023-03-02T13:00:23.473Z,70.77
2023-03-02T13:02:53.494Z,71.87
2023-03-02T13:05:24.744Z,70.85
2023-03-02T13:08:05.156Z,71.00
2023-03-02T13:10:54.069Z,70.97
2023-03-02T13:13:34.234Z,72.05
2023-03-02T13:16:05.140Z,71.13
2023-03-02T13:18:35.498Z,71.61
2023-03-02T13:21:04.430Z,71.41
2023-03-02T13:23:33.586Z,70.83
2023-03-02T13:26:04.396Z,70.38
2023-03-02T13:28:37.612Z,70.47
2023-03-02T13:31:22.209Z,69.21
2023-03-02T13:33:50.875Z,69.22
2023-03-02T13:36:29.284Z,69.54
2023-03-02T13:38:59.387Z,68.69
2023-03-02T13:41:34.526Z,68.23
2023-03-02T13:44:21.366Z,68.57
2023-03-02T13:46:48.290Z,68.84
2023-03-02T13:49:27.823Z,67.46
2023-03-02T13:52:07.080Z,68.30
2023-03-02T13:54:37.130Z,68.10
2023-03-02T13:57:06.417Z,67.63
2023-03-02T13:59:36.426Z,67.69
2023-03-02T14:02:03.491Z,68.45
2023-03-02T14:04:30.422Z,67.84
2023-03-02T14:06:57.280Z,64.90
2023-03-02T14:09:24.855Z,64.44
2023-03-02T14:11:55.403Z,64.73
2023-03-02T14:14:25.464Z,64.96
2023-03-02T14:16:52.475Z,65.33
2023-03-02T14:19:20.153Z,63.11
2023-03-02T14:21:47.972Z,62.10
2023-03-02T14:24:14.883Z,60.82
2023-03-02T14:26:44.989Z,63.02
2023-03-02T14:29:31.605Z,63.41
2023-03-02T14:32:06.486Z,63.06
2023-03-02T14:34:36.780Z,61.20
2023-03-02T14:37:07.908Z,62.32
2023-03-02T14:39:38.593Z,62.12
2023-03-02T14:42:12.352Z,60.42
2023-03-02T14:44:40.061Z,61.55
2023-03-02T14:47:07.394Z,61.89
2023-03-02T14:49:34.277Z,62.78
2023-03-02T14:52:03.036Z,61.91
2023-03-02T14:54:43.868Z,61.24
2023-03-02T14:57:20.674Z,61.56
2023-03-02T14:59:48.716Z,62.34
2023-03-02T15:02:25.299Z,62.62
2023-03-02T15:04:56.533Z,62.98
2023-03-02T15:07:26.117Z,62.79
2023-03-02T15:09:54.323Z,63.25
2023-03-02T15:12:21.222Z,63.67
2023-03-02T15:14:48.039Z,63.78
2023-03-02T15:17:15.022Z,63.38
2023-03-02T15:19:41.875Z,63.08
2023-03-02T15:22:08.860Z,61.79
2023-03-02T15:24:35.668Z,61.45
2023-03-02T15:27:02.471Z,62.98
2023-03-02T15:29:29.328Z,64.00
2023-03-02T15:31:59.355Z,64.15
2023-03-02T15:34:26.286Z,64.51
2023-03-02T15:36:53.093Z,64.10
2023-03-02T15:39:20.003Z,64.26
2023-03-02T15:41:47.021Z,63.83
2023-03-02T15:44:22.117Z,64.95
2023-03-02T15:46:58.104Z,64.76
2023-03-02T15:49:28.389Z,64.54
2023-03-02T15:51:59.463Z,64.63
2023-03-02T15:54:27.360Z,64.89
2023-03-02T15:56:54.630Z,64.17
2023-03-02T15:59:25.106Z,65.19
2023-03-02T16:01:52.743Z,64.53
2023-03-02T16:04:19.974Z,64.14
2023-03-02T16:06:46.881Z,65.26
2023-03-02T16:09:13.751Z,64.63
2023-03-02T16:11:40.750Z,65.33
2023-03-02T16:14:07.619Z,65.26
2023-03-02T16:16:34.543Z,65.16
2023-03-02T16:19:01.705Z,66.05
2023-03-02T16:21:29.167Z,66.74
2023-03-02T16:24:03.237Z,64.83
2023-03-02T16:26:36.788Z,65.55
2023-03-02T16:29:05.713Z,66.10
2023-03-02T16:31:34.290Z,66.53
2023-03-02T16:34:06.917Z,66.40
2023-03-02T16:36:38.457Z,65.13
2023-03-02T16:39:07.451Z,66.02
2023-03-02T16:41:34.966Z,66.73
2023-03-02T16:44:02.091Z,66.74
2023-03-02T16:46:36.130Z,67.20
2023-03-02T16:49:04.452Z,67.00
2023-03-02T16:51:31.380Z,66.89
2023-03-02T16:53:58.674Z,67.15
2023-03-02T16:56:25.629Z,67.53
2023-03-02T16:58:52.403Z,67.29
2023-03-02T17:01:22.346Z,67.23
2023-03-02T17:03:50.640Z,66.78
2023-03-02T17:06:21.060Z,66.74
2023-03-02T17:08:48.060Z,67.06
2023-03-02T17:11:15.335Z,67.52
2023-03-02T17:13:42.220Z,67.54
2023-03-02T17:16:09.189Z,67.59
2023-03-02T17:18:36.131Z,68.51
2023-03-02T17:21:04.877Z,68.77
2023-03-02T17:23:31.899Z,68.78
2023-03-02T17:25:58.743Z,68.50
2023-03-02T17:28:25.768Z,69.22
2023-03-02T17:30:52.669Z,69.71
2023-03-02T17:33:19.514Z,69.14
2023-03-02T17:35:46.682Z,69.07
2023-03-02T17:38:14.980Z,69.67
2023-03-02T17:40:43.113Z,69.74
2023-03-02T17:43:10.454Z,68.70
2023-03-02T17:45:37.457Z,68.80
2023-03-02T17:48:04.863Z,69.63
2023-03-02T17:50:32.450Z,69.29
2023-03-02T17:53:00.043Z,68.75
2023-03-02T17:55:27.561Z,69.60
2023-03-02T17:57:54.510Z,69.97
2023-03-02T18:00:22.836Z,69.59
2023-03-02T18:02:50.315Z,69.94
2023-03-02T18:05:17.569Z,71.59
2023-03-02T18:07:44.432Z,71.71
2023-03-02T18:10:12.446Z,70.65
2023-03-02T18:12:39.399Z,70.90
2023-03-02T18:15:07.707Z,72.88
2023-03-02T18:17:34.585Z,73.33
2023-03-02T18:20:01.417Z,72.60
2023-03-02T18:22:28.343Z,73.31
2023-03-02T18:24:55.151Z,72.60
2023-03-02T18:27:22.063Z,73.36
2023-03-02T18:29:49.411Z,72.72
2023-03-02T18:32:16.337Z,72.39
2023-03-02T18:34:43.327Z,73.04
2023-03-02T18:37:10.249Z,72.42
2023-03-02T18:39:40.221Z,72.20
2023-03-02T18:42:07.820Z,72.73
2023-03-02T18:44:35.324Z,72.64
2023-03-02T18:47:02.531Z,73.16
2023-03-02T18:49:29.513Z,74.13
2023-03-02T18:51:56.814Z,73.46
2023-03-02T18:54:24.326Z,73.25
2023-03-02T18:56:51.466Z,74.58
2023-03-02T18:59:18.872Z,74.07
2023-03-02T19:01:46.213Z,73.23
2023-03-02T19:04:14.364Z,73.86
2023-03-02T19:06:42.815Z,74.01
2023-03-02T19:09:10.306Z,73.80
2023-03-02T19:11:37.560Z,74.29
2023-03-02T19:14:04.605Z,75.00
2023-03-02T19:16:31.849Z,75.01
2023-03-02T19:18:59.770Z,74.90
2023-03-02T19:21:26.779Z,75.66
2023-03-02T19:23:53.726Z,76.12
2023-03-02T19:26:20.629Z,77.52
2023-03-02T19:28:47.511Z,77.55
2023-03-02T19:31:14.741Z,77.99
2023-03-02T19:33:42.613Z,77.14
2023-03-02T19:36:10.021Z,77.43
2023-03-02T19:38:40.599Z,76.41
2023-03-02T19:41:10.553Z,76.34
2023-03-02T19:43:37.669Z,75.71
2023-03-02T19:46:05.243Z,75.64
2023-03-02T19:48:33.944Z,75.60
2023-03-02T19:51:00.901Z,76.33
2023-03-02T19:53:27.703Z,76.96
2023-03-02T19:56:08.261Z,76.94
2023-03-02T19:58:36.086Z,75.62
2023-03-02T20:01:04.147Z,77.18
2023-03-02T20:03:31.096Z,76.86
2023-03-02T20:05:58.945Z,78.12
2023-03-02T20:08:25.945Z,77.86
2023-03-02T20:10:52.858Z,77.01
2023-03-02T20:13:19.699Z,76.30
2023-03-02T20:15:47.755Z,76.44
2023-03-02T20:18:20.049Z,76.19
2023-03-02T20:20:48.375Z,76.01
2023-03-02T20:23:16.176Z,76.40
2023-03-02T20:25:43.150Z,78.51
2023-03-02T20:28:13.748Z,77.93
2023-03-02T20:30:51.379Z,77.93
2023-03-02T20:33:22.239Z,77.34
2023-03-02T20:35:49.722Z,77.40
2023-03-02T20:38:24.496Z,77.19
2023-03-02T20:40:51.532Z,76.74
2023-03-02T20:43:19.002Z,77.87
2023-03-02T20:45:45.889Z,77.41
2023-03-02T20:48:13.610Z,76.99
2023-03-02T20:50:40.686Z,76.75
2023-03-02T20:53:08.566Z,76.76
2023-03-02T20:55:35.799Z,76.42
2023-03-02T20:58:05.285Z,76.59
2023-03-02T21:00:34.315Z,76.64
2023-03-02T21:03:01.339Z,76.79
2023-03-02T21:05:30.088Z,77.15
2023-03-02T21:07:57.800Z,77.46
2023-03-02T21:10:30.354Z,78.11
2023-03-02T21:12:57.349Z,77.62
2023-03-02T21:15:27.167Z,78.07
2023-03-02T21:17:56.009Z,78.33
2023-03-02T21:20:26.314Z,78.03
2023-03-02T21:22:53.263Z,78.54
2023-03-02T21:25:20.600Z,78.76
2023-03-02T21:27:47.412Z,79.31
2023-03-02T21:30:22.403Z,79.51
2023-03-02T21:32:49.650Z,79.00
2023-03-02T21:35:23.385Z,79.16
2023-03-02T21:37:54.621Z,79.69
2023-03-02T21:40:31.364Z,79.62
2023-03-02T21:43:00.309Z,79.93
2023-03-02T21:45:28.847Z,79.44
2023-03-02T21:47:55.722Z,80.30
2023-03-02T21:50:26.993Z,80.08
2023-03-02T21:52:55.463Z,80.74
2023-03-02T21:55:22.517Z,80.94
2023-03-02T21:57:49.385Z,80.54
2023-03-02T22:00:35.797Z,80.91
2023-03-02T22:03:03.385Z,81.26
2023-03-02T22:05:31.010Z,81.57
2023-03-02T22:07:58.117Z,81.66
2023-03-02T22:10:34.911Z,81.04
2023-03-02T22:13:33.360Z,81.93
2023-03-02T22:16:14.380Z,82.36
2023-03-02T22:18:43.194Z,82.84
2023-03-02T22:21:32.026Z,82.92
2023-03-02T22:24:09.616Z,83.62
2023-03-02T22:26:52.764Z,83.36
2023-03-02T22:29:49.479Z,84.05
2023-03-02T22:32:22.616Z,83.78
2023-03-02T22:34:57.301Z,84.46
2023-03-02T22:37:30.726Z,84.92
2023-03-02T22:40:02.017Z,85.41
2023-03-02T22:42:30.803Z,85.48
2023-03-02T22:45:18.844Z,85.72
2023-03-02T22:47:51.307Z,85.34
2023-03-02T22:50:29.666Z,86.82
2023-03-02T22:52:58.501Z,86.13
2023-03-02T22:55:31.153Z,86.62
2023-03-02T22:57:57.978Z,86.65
2023-03-02T23:00:40.184Z,86.78
2023-03-02T23:03:24.905Z,87.10
2023-03-02T23:05:53.051Z,87.38
2023-03-02T23:08:29.508Z,87.96
2023-03-02T23:10:58.921Z,87.24
2023-03-02T23:13:38.252Z,88.25
2023-03-02T23:16:26.948Z,88.17
2023-03-02T23:18:59.307Z,88.09
2023-03-02T23:21:41.688Z,88.06
2023-03-02T23:24:08.886Z,87.82
2023-03-02T23:26:36.237Z,87.15
2023-03-02T23:29:04.218Z,88.16
2023-03-02T23:31:31.287Z,87.91
2023-03-02T23:33:58.224Z,88.69
2023-03-02T23:36:26.164Z,88.74
2023-03-02T23:38:53.238Z,89.20
2023-03-02T23:41:20.112Z,89.07
2023-03-02T23:43:47.001Z,89.42
2023-03-02T23:46:14.383Z,88.54
2023-03-02T23:48:42.759Z,88.63
2023-03-02T23:51:10.421Z,88.30
2023-03-02T23:53:37.316Z,88.85
2023-03-02T23:56:04.288Z,88.14
2023-03-02T23:58:31.178Z,88.45
